CheckWX is a tool to help pilots better visualize weather data.  It is not intended as a substitute for an official pre-flight weather briefing.

10:08:43 UTC

SLJO METAR
San Joaquín Airport
San Joaquín, Bolivia
Current

12 hours ago

SLJO 242200Z 00000KT 6000 NSC 33/22 Q1011
Observed
Aug-24 @ 22:00 UTC
Visibility
6,000 meters
Flight Rules
MVFR
Cloud Levels
  • Clear skies
Temperature
33°C / 91°F
Dewpoint
22°C / 72°F
Heat Index
37°C / 98°F
Humidity
52%
Altimeter
29.85" Hg
Pressure
1010.92 hPa
Previous

13 hours ago

SLJO 242100Z 00000KT 7000 NSC 35/20 Q1011
Observed
Aug-24 @ 21:00 UTC
Visibility
7,000 meters
Flight Rules
MVFR
Cloud Levels
  • Clear skies
Temperature
35°C / 95°F
Dewpoint
20°C / 68°F
Heat Index
38°C / 100°F
Humidity
41%
Altimeter
29.85" Hg
Pressure
1010.92 hPa
Previous

14 hours ago

SLJO 242000Z 00000KT 7000 NSC 36/19 Q1011
Observed
Aug-24 @ 20:00 UTC
Visibility
7,000 meters
Flight Rules
MVFR
Cloud Levels
  • Clear skies
Temperature
36°C / 97°F
Dewpoint
19°C / 66°F
Humidity
37%
Altimeter
29.85" Hg
Pressure
1010.92 hPa